createdAt,value
2023-03-06T00:01:54.548Z,20.00
2023-03-06T00:06:57.608Z,20.85
2023-03-06T00:11:59.333Z,21.10
2023-03-06T00:17:01.091Z,19.92
2023-03-06T00:22:04.206Z,20.83
2023-03-06T00:27:06.017Z,22.00
2023-03-06T00:32:08.188Z,23.73
2023-03-06T00:37:11.287Z,20.17
2023-03-06T00:42:13.338Z,20.55
2023-03-06T00:47:15.176Z,20.48
2023-03-06T00:52:18.595Z,20.30
2023-03-06T00:57:20.280Z,20.33
2023-03-06T01:02:22.128Z,20.42
2023-03-06T01:07:25.274Z,20.17
2023-03-06T01:12:27.051Z,20.30
2023-03-06T01:17:28.720Z,20.12
2023-03-06T01:22:31.896Z,22.17
2023-03-06T01:27:33.658Z,23.20
2023-03-06T01:32:35.380Z,21.12
2023-03-06T01:37:39.140Z,20.60
2023-03-06T01:42:40.856Z,23.05
2023-03-06T01:47:42.541Z,19.95
2023-03-06T01:52:49.223Z,21.08
2023-03-06T01:57:53.420Z,21.05
2023-03-06T02:02:58.349Z,21.75
2023-03-06T02:13:04.415Z,23.50
2023-03-06T02:18:06.254Z,21.58
2023-03-06T02:23:14.785Z,20.48
2023-03-06T02:28:20.960Z,23.17
2023-03-06T02:33:25.414Z,20.23
2023-03-06T02:38:29.680Z,22.02
2023-03-06T02:43:35.355Z,20.88
2023-03-06T02:48:37.165Z,21.25
2023-03-06T02:53:38.912Z,21.65
2023-03-06T02:58:42.050Z,20.37
2023-03-06T03:03:44.412Z,21.48
2023-03-06T03:08:46.214Z,20.10
2023-03-06T03:13:49.335Z,18.70
2023-03-06T03:18:51.078Z,19.85
2023-03-06T03:23:52.851Z,19.58
2023-03-06T03:28:55.932Z,19.65
2023-03-06T03:33:57.598Z,18.65
2023-03-06T03:38:59.306Z,20.08
2023-03-06T03:44:02.434Z,18.77
2023-03-06T03:49:04.210Z,17.87
2023-03-06T03:54:06.275Z,18.15
2023-03-06T03:59:10.239Z,19.65
2023-03-06T04:04:12.206Z,19.80
2023-03-06T04:09:14.040Z,19.60
2023-03-06T04:14:17.264Z,19.33
2023-03-06T04:19:19.225Z,19.60
2023-03-06T04:24:20.958Z,19.33
2023-03-06T04:29:24.179Z,18.67
2023-03-06T04:34:25.972Z,18.92
2023-03-06T04:39:27.687Z,18.90
2023-03-06T04:44:33.120Z,19.00
2023-03-06T04:49:35.216Z,19.08
2023-03-06T04:54:37.900Z,18.83
2023-03-06T04:59:41.079Z,19.37
2023-03-06T05:04:51.114Z,19.00
2023-03-06T05:09:53.086Z,21.33
2023-03-06T05:14:57.480Z,19.08
2023-03-06T05:19:59.282Z,20.62
2023-03-06T05:25:01.124Z,19.77
2023-03-06T05:30:05.166Z,20.23
2023-03-06T05:35:07.621Z,21.77
2023-03-06T05:40:10.974Z,20.30
2023-03-06T05:45:14.098Z,20.62
2023-03-06T05:50:15.925Z,19.92
2023-03-06T05:55:17.892Z,19.98
2023-03-06T06:00:22.594Z,21.58
2023-03-06T06:05:24.536Z,20.67
2023-03-06T06:10:26.351Z,20.92
2023-03-06T06:15:32.518Z,19.90
2023-03-06T06:20:34.313Z,20.35
2023-03-06T06:25:36.622Z,19.55
2023-03-06T06:30:39.951Z,20.17
2023-03-06T06:35:41.748Z,22.55
2023-03-06T06:40:43.488Z,22.10
2023-03-06T06:45:47.958Z,25.02
2023-03-06T06:50:55.555Z,21.00
2023-03-06T06:55:58.544Z,23.17
2023-03-06T07:01:06.527Z,21.15
2023-03-06T07:06:08.525Z,22.73
2023-03-06T07:11:12.629Z,28.73
2023-03-06T07:16:16.358Z,23.63
2023-03-06T07:21:18.246Z,21.15
2023-03-06T07:26:19.930Z,25.02
2023-03-06T07:31:25.166Z,20.85
2023-03-06T07:36:27.026Z,22.00
2023-03-06T07:41:28.766Z,24.65
2023-03-06T07:46:31.980Z,24.10
2023-03-06T07:51:33.764Z,26.65
2023-03-06T07:56:35.597Z,21.48
2023-03-06T08:01:38.681Z,23.90
2023-03-06T08:06:40.387Z,29.48
2023-03-06T08:11:42.091Z,21.92
2023-03-06T08:16:45.265Z,23.42
2023-03-06T08:21:46.961Z,26.40
2023-03-06T08:26:49.048Z,23.75
2023-03-06T08:31:52.257Z,26.70
2023-03-06T08:36:54.041Z,23.52
2023-03-06T08:41:55.835Z,32.75
2023-03-06T08:46:59.024Z,27.50
2023-03-06T08:52:00.997Z,26.90
2023-03-06T08:57:03.017Z,24.08
2023-03-06T09:02:06.128Z,29.30
2023-03-06T09:07:07.877Z,29.42
2023-03-06T09:12:09.565Z,25.52
2023-03-06T09:17:12.645Z,27.60
2023-03-06T09:22:14.436Z,29.58
2023-03-06T09:27:16.307Z,21.90
2023-03-06T09:32:19.420Z,25.40
2023-03-06T09:37:21.093Z,27.30
2023-03-06T09:42:23.208Z,37.45
2023-03-06T09:47:44.943Z,26.75
2023-03-06T09:52:59.286Z,26.60
2023-03-06T09:58:06.844Z,33.40
2023-03-06T10:03:20.522Z,31.60
2023-03-06T10:08:27.747Z,30.98
2023-03-06T10:13:38.290Z,22.42
2023-03-06T10:18:41.504Z,26.77
2023-03-06T10:23:51.801Z,23.45
2023-03-06T10:29:08.829Z,31.85
2023-03-06T10:34:20.838Z,28.58
2023-03-06T10:39:23.033Z,26.62
2023-03-06T10:44:25.032Z,25.35
2023-03-06T10:49:31.272Z,24.23
2023-03-06T10:54:34.700Z,22.13
2023-03-06T10:59:51.337Z,20.95
2023-03-06T11:04:56.530Z,22.20
2023-03-06T11:10:06.970Z,20.80
2023-03-06T11:15:17.928Z,20.67
2023-03-06T11:20:22.837Z,21.70
2023-03-06T11:25:31.222Z,19.45
2023-03-06T11:30:40.769Z,18.90
2023-03-06T11:35:53.137Z,19.77
2023-03-06T11:40:58.294Z,20.88
2023-03-06T11:51:13.878Z,26.48
2023-03-06T11:56:31.574Z,31.20
2023-03-06T12:01:36.872Z,28.27
2023-03-06T12:11:54.646Z,27.92
2023-03-06T12:17:07.019Z,32.20
2023-03-06T12:22:29.612Z,24.92
2023-03-06T12:27:41.659Z,27.60
2023-03-06T12:32:50.088Z,24.70
2023-03-06T12:38:04.005Z,28.23
2023-03-06T12:43:49.175Z,23.90
2023-03-06T12:48:59.314Z,26.73
2023-03-06T12:54:03.256Z,29.20
2023-03-06T12:59:05.080Z,22.20
2023-03-06T13:04:39.842Z,26.27
2023-03-06T13:09:58.504Z,23.53
2023-03-06T13:15:01.229Z,23.60
2023-03-06T13:20:27.728Z,26.67
2023-03-06T13:25:47.766Z,25.12
2023-03-06T13:30:51.402Z,27.40
2023-03-06T13:35:55.918Z,23.17
2023-03-06T13:41:32.716Z,23.83
2023-03-06T13:46:36.940Z,25.35
2023-03-06T13:51:40.702Z,27.60
2023-03-06T13:57:10.558Z,25.05
2023-03-06T14:02:31.775Z,26.73
2023-03-06T14:07:35.069Z,25.92
2023-03-06T14:12:41.385Z,24.48
2023-03-06T14:17:53.137Z,22.73
2023-03-06T14:23:14.508Z,22.83
2023-03-06T14:28:25.560Z,23.85
2023-03-06T14:33:31.284Z,24.42
2023-03-06T14:38:37.040Z,21.20
2023-03-06T14:43:40.126Z,23.73
2023-03-06T14:48:43.865Z,28.62
2023-03-06T14:53:47.744Z,32.42
2023-03-06T14:58:57.031Z,23.85
2023-03-06T15:04:00.484Z,24.10
2023-03-06T15:09:07.728Z,23.33
2023-03-06T15:14:18.342Z,23.77
2023-03-06T15:19:21.574Z,27.62
2023-03-06T15:24:32.950Z,23.25
2023-03-06T15:29:38.188Z,29.87
2023-03-06T15:34:40.115Z,23.02
2023-03-06T15:39:41.992Z,21.27
2023-03-06T15:44:48.166Z,26.02
2023-03-06T15:50:00.542Z,24.83
2023-03-06T16:01:10.029Z,21.73
2023-03-06T16:06:42.065Z,25.48
2023-03-06T16:22:49.715Z,23.02
2023-03-06T16:27:52.932Z,22.05
2023-03-06T16:32:54.711Z,25.02
2023-03-06T16:37:57.836Z,20.10
2023-03-06T16:42:59.534Z,21.73
2023-03-06T16:48:01.500Z,21.48
2023-03-06T16:53:05.568Z,22.42
2023-03-06T16:58:07.655Z,24.00
2023-03-06T17:03:09.404Z,19.83
2023-03-06T17:08:12.616Z,30.73
2023-03-06T17:13:14.282Z,27.02
2023-03-06T17:18:15.965Z,23.90
2023-03-06T17:23:19.609Z,24.67
2023-03-06T17:28:21.645Z,22.10
2023-03-06T17:33:23.390Z,21.02
2023-03-06T17:38:26.760Z,20.58
2023-03-06T17:43:28.474Z,21.50
2023-03-06T17:48:30.232Z,30.23
2023-03-06T17:53:33.457Z,31.00
2023-03-06T17:58:35.751Z,23.87
2023-03-06T18:03:38.641Z,24.80
2023-03-06T18:08:42.562Z,22.62
2023-03-06T18:13:44.981Z,25.25
2023-03-06T18:18:47.760Z,24.87
2023-03-06T18:23:51.084Z,22.85
2023-03-06T18:28:54.838Z,30.10
2023-03-06T18:33:58.327Z,22.37
2023-03-06T18:39:02.091Z,23.42
2023-03-06T18:44:04.159Z,24.70
2023-03-06T18:49:06.477Z,22.50
2023-03-06T18:54:11.238Z,23.55
2023-03-06T18:59:15.421Z,24.10
2023-03-06T19:04:18.479Z,28.67
2023-03-06T19:09:21.738Z,27.13
2023-03-06T19:19:43.552Z,28.08
2023-03-06T19:24:47.070Z,26.02
2023-03-06T19:29:48.832Z,32.35
2023-03-06T19:40:39.927Z,35.97
2023-03-06T19:51:28.885Z,31.67
2023-03-06T19:56:32.004Z,41.17
2023-03-06T20:01:33.746Z,35.80
2023-03-06T20:06:35.468Z,35.75
2023-03-06T20:11:39.094Z,35.80
2023-03-06T20:16:40.880Z,33.20
2023-03-06T20:21:42.634Z,36.22
2023-03-06T20:26:47.168Z,34.47
2023-03-06T20:31:49.022Z,32.05
2023-03-06T20:36:53.843Z,38.08
2023-03-06T20:46:58.582Z,34.40
2023-03-06T20:57:40.828Z,39.08
2023-03-06T21:02:42.633Z,36.67
2023-03-06T21:07:44.342Z,34.13
2023-03-06T21:12:47.432Z,31.87
2023-03-06T21:17:49.203Z,34.97
2023-03-06T21:22:51.283Z,35.92
2023-03-06T21:27:54.769Z,39.33
2023-03-06T21:32:56.562Z,41.40
2023-03-06T21:37:58.295Z,37.55
2023-03-06T21:43:01.503Z,41.42
2023-03-06T21:48:03.751Z,34.45
2023-03-06T21:53:05.640Z,41.72
2023-03-06T21:58:09.014Z,44.25
2023-03-06T22:03:31.214Z,44.75
2023-03-06T22:14:32.462Z,43.67
2023-03-06T22:19:34.609Z,41.20
2023-03-06T22:24:41.148Z,47.30
2023-03-06T22:29:47.160Z,47.40
2023-03-06T22:34:51.933Z,50.25
2023-03-06T22:44:56.533Z,47.30
2023-03-06T22:49:58.445Z,47.90
2023-03-06T22:55:02.059Z,50.35
2023-03-06T23:00:09.698Z,51.88
2023-03-06T23:05:11.542Z,47.03
2023-03-06T23:10:15.420Z,54.22
2023-03-06T23:15:20.342Z,47.67
2023-03-06T23:20:22.453Z,47.65
2023-03-06T23:25:24.389Z,55.75
2023-03-06T23:30:27.496Z,50.90
2023-03-06T23:35:29.189Z,48.50
2023-03-06T23:40:31.396Z,52.03
2023-03-06T23:45:34.502Z,41.85
2023-03-06T23:50:39.339Z,51.10
